Time;durP1;ratioP1;P1;durP2;ratioP2;P2;SDS_P1;SDS_P2;PMS_P1;PMS_P2;Temp;Humidity;BMP_temperature;BMP_pressure;BME280_temperature;BME280_humidity;BME280_pressure;Samples;Min_cycle;Max_cycle;Signal;HPM_P1;HPM_P2
2022/09/01 00:00:02;;;;;;;4.20;3.80;;;18.90;99.90;;;20.10;64.22;100898.16;4995562;28;20653;-71
2022/09/01 00:02:29;;;;;;;4.50;4.10;;;18.90;99.90;;;19.89;64.41;100902.28;4993602;28;21042;-71
2022/09/01 00:04:57;;;;;;;4.77;4.27;;;18.90;99.90;;;19.77;65.36;100900.94;4994230;28;21017;-70
2022/09/01 00:07:28;;;;;;;5.30;4.37;;;18.70;99.90;;;19.75;65.66;100897.63;4991968;28;21014;-71
2022/09/01 00:10:00;;;;;;;4.20;3.50;;;18.70;99.90;;;19.71;65.41;100904.22;5007573;28;20698;-70
2022/09/01 00:12:29;;;;;;;5.77;4.40;;;18.70;99.90;;;19.71;65.53;100893.63;4993187;28;20992;-71
2022/09/01 00:14:57;;;;;;;4.37;3.97;;;18.60;99.90;;;19.64;66.40;100892.63;5009950;28;21202;-72
2022/09/01 00:17:25;;;;;;;7.10;4.10;;;18.50;99.90;;;19.64;66.01;100893.47;4976714;28;20615;-71
2022/09/01 00:19:52;;;;;;;3.77;3.47;;;18.50;99.90;;;19.56;66.52;100888.16;4991115;28;20666;-69
2022/09/01 00:22:19;;;;;;;5.97;4.50;;;18.40;99.90;;;19.52;66.25;100889.47;4993041;28;20607;-71
2022/09/01 00:24:46;;;;;;;5.00;4.60;;;18.40;99.90;;;19.51;65.90;100887.81;4992005;28;20634;-70
2022/09/01 00:27:13;;;;;;;5.30;4.80;;;18.40;99.90;;;19.49;66.26;100889.78;4992396;28;21220;-72
2022/09/01 00:29:40;;;;;;;6.90;4.70;;;18.40;99.90;;;19.62;65.84;100890.16;4991466;28;20758;-72
2022/09/01 00:32:10;;;;;;;4.50;4.10;;;18.40;99.90;;;19.53;66.22;100887.66;4992379;28;20634;-71
2022/09/01 00:34:38;;;;;;;4.80;4.10;;;18.40;99.90;;;19.50;66.42;100882.69;4987580;28;21309;-71
2022/09/01 00:37:05;;;;;;;7.10;4.40;;;18.40;99.90;;;19.30;67.17;100885.56;4984843;28;20661;-71
2022/09/01 00:39:32;;;;;;;5.00;4.50;;;18.30;99.90;;;19.34;66.66;100886.09;4991754;28;20676;-72
2022/09/01 00:41:59;;;;;;;5.70;5.00;;;18.30;99.90;;;19.38;66.54;100886.63;4993334;28;20627;-70
2022/09/01 00:44:26;;;;;;;6.00;4.90;;;18.30;99.90;;;19.37;66.50;100872.56;4991911;28;20739;-72
2022/09/01 00:46:57;;;;;;;4.40;4.00;;;18.30;99.90;;;19.46;66.30;100881.34;4992076;28;20623;-71
2022/09/01 00:49:42;;;;;;;5.40;4.90;;;18.40;99.90;;;19.47;66.46;100875.03;4989142;28;20713;-72
2022/09/01 00:52:16;;;;;;;7.50;4.20;;;18.40;99.90;;;19.31;66.71;100881.09;5007674;28;20626;-71
2022/09/01 00:54:50;;;;;;;5.00;3.93;;;18.30;99.90;;;19.29;67.17;100886.53;5006704;28;20649;-72
2022/09/01 00:57:17;;;;;;;4.37;3.97;;;18.30;99.90;;;19.27;67.02;100880.59;4992857;28;20792;-70
2022/09/01 01:00:11;;;;;;;5.20;4.80;;;18.20;99.90;;;19.27;67.15;100887.72;4990751;28;21198;-71
2022/09/01 01:02:43;;;;;;;6.10;5.00;;;18.20;99.90;;;19.28;67.25;100881.41;4981920;28;20651;-71
2022/09/01 01:05:11;;;;;;;4.70;4.30;;;18.20;99.90;;;19.15;67.58;100883.69;4991676;28;20630;-71
2022/09/01 01:07:45;;;;;;;5.30;4.80;;;18.20;99.90;;;19.18;67.79;100889.50;4990552;28;21268;-71
2022/09/01 01:10:14;;;;;;;4.57;4.17;;;18.20;99.90;;;19.22;67.72;100885.53;5007061;28;20666;-72
2022/09/01 01:12:43;;;;;;;5.33;4.83;;;18.20;99.90;;;19.04;68.11;100887.44;4992452;28;20657;-70
2022/09/01 01:15:12;;;;;;;5.93;4.13;;;18.10;99.90;;;18.81;69.19;100890.78;4989752;28;20741;-71
2022/09/01 01:17:39;;;;;;;5.27;3.90;;;18.00;99.90;;;18.86;69.13;100889.34;4990368;28;20619;-72
2022/09/01 01:23:20;;;;;;;6.73;4.60;;;18.00;99.90;;;19.04;68.24;100886.59;4974350;28;21002;-70
2022/09/01 01:25:52;;;;;;;8.73;4.60;;;18.00;99.90;;;19.16;68.04;100880.91;4986350;28;20999;-72
2022/09/01 01:28:35;;;;;;;5.00;4.20;;;18.00;99.90;;;19.08;68.33;100885.31;4980889;28;20654;-70
2022/09/01 01:31:17;;;;;;;5.50;4.50;;;18.00;99.90;;;19.12;67.91;100881.38;4990608;28;20666;-70
2022/09/01 01:33:51;;;;;;;4.53;4.00;;;18.00;99.90;;;19.14;67.84;100879.38;4988857;28;21193;-71
2022/09/01 01:36:35;;;;;;;4.47;4.07;;;18.10;99.90;;;19.08;67.54;100882.69;5004966;28;21337;-71
2022/09/01 01:39:11;;;;;;;5.17;4.67;;;18.10;99.90;;;19.03;67.80;100882.31;4989317;28;20650;-70
2022/09/01 01:41:44;;;;;;;5.10;4.60;;;18.00;99.90;;;19.02;67.20;100878.84;4989771;28;20993;-71
2022/09/01 01:44:13;;;;;;;5.80;3.97;;;18.00;99.90;;;19.03;67.51;100877.03;4969306;28;21486;-70
2022/09/01 01:46:49;;;;;;;5.07;4.67;;;17.90;99.90;;;19.12;67.16;100876.06;4970694;28;20722;-71
2022/09/01 01:49:22;;;;;;;4.70;4.30;;;18.00;99.90;;;18.96;67.23;100878.63;4971267;28;20649;-71
2022/09/01 01:51:56;;;;;;;4.90;4.50;;;18.00;99.90;;;19.00;66.92;100878.16;4963190;28;20761;-70
2022/09/01 01:54:30;;;;;;;4.97;4.47;;;18.00;99.90;;;18.93;67.34;100879.78;4975015;28;20614;-71
2022/09/01 01:57:03;;;;;;;6.23;4.73;;;17.90;99.90;;;18.85;67.73;100878.91;5005545;28;20633;-71
2022/09/01 01:59:32;;;;;;;5.40;4.90;;;17.90;99.90;;;18.92;67.39;100886.06;5005693;28;20651;-70
2022/09/01 02:02:02;;;;;;;4.50;3.77;;;17.90;99.90;;;18.84;67.48;100885.19;4990194;28;21226;-70
2022/09/01 02:04:33;;;;;;;5.40;4.30;;;17.80;99.90;;;18.85;67.75;100881.53;4989443;28;20989;-71
2022/09/01 02:07:00;;;;;;;5.33;4.57;;;17.80;99.90;;;18.94;67.32;100880.59;4991230;28;21210;-70
2022/09/01 02:09:27;;;;;;;4.37;4.07;;;17.80;99.90;;;18.94;67.42;100876.16;4991486;28;20993;-70
2022/09/01 02:11:55;;;;;;;5.73;4.90;;;17.90;99.90;;;19.04;67.12;100879.50;4989129;28;20671;-71
2022/09/01 02:14:23;;;;;;;4.90;4.40;;;17.90;99.90;;;19.06;66.95;100876.72;4991664;28;20689;-70
2022/09/01 02:16:51;;;;;;;5.23;4.50;;;17.90;99.90;;;19.14;66.24;100876.75;4989282;28;21464;-71
2022/09/01 02:19:19;;;;;;;4.87;4.47;;;18.10;99.90;;;19.19;66.37;100877.91;4987592;28;20663;-70
2022/09/01 02:21:53;;;;;;;4.70;4.30;;;18.10;99.90;;;19.22;65.88;100879.41;4979462;28;21170;-70
2022/09/01 02:24:20;;;;;;;4.83;4.43;;;18.10;99.90;;;19.09;66.46;100879.88;4983251;28;20742;-69
2022/09/01 02:26:47;;;;;;;4.77;4.37;;;18.10;99.90;;;19.17;66.57;100879.88;4981318;28;20619;-70
2022/09/01 02:29:21;;;;;;;5.10;4.70;;;18.10;99.90;;;19.05;66.70;100881.16;4989670;28;20749;-71
2022/09/01 02:31:51;;;;;;;4.83;4.53;;;18.10;99.90;;;18.93;66.88;100874.47;4989467;28;20646;-71
2022/09/01 02:34:22;;;;;;;4.87;4.40;;;17.90;99.90;;;18.75;67.02;100864.97;4989614;28;20615;-70
2022/09/01 02:36:52;;;;;;;4.07;3.77;;;17.80;99.90;;;18.68;67.56;100871.88;4990874;28;20623;-71
2022/09/01 02:39:32;;;;;;;2.90;2.63;;;17.70;99.90;;;18.51;67.78;100870.94;4990120;28;21074;-71
2022/09/01 02:42:00;;;;;;;4.50;4.10;;;17.60;99.90;;;18.50;68.27;100877.22;4989455;28;20616;-71
2022/09/01 02:44:29;;;;;;;5.63;3.90;;;17.50;99.90;;;18.47;68.18;100870.44;4974479;28;21138;-71
2022/09/01 02:46:58;;;;;;;5.17;4.67;;;17.50;99.90;;;18.45;68.81;100871.56;4988670;28;20635;-71
2022/09/01 02:49:27;;;;;;;6.03;4.20;;;17.40;99.90;;;18.50;68.33;100870.13;4988547;28;20677;-71
2022/09/01 02:52:00;;;;;;;4.70;4.30;;;17.40;99.90;;;18.32;68.88;100866.66;4990924;28;20658;-71
2022/09/01 02:54:30;;;;;;;4.63;4.00;;;17.40;99.90;;;18.52;68.28;100873.44;4988497;28;21182;-71
2022/09/01 02:56:58;;;;;;;4.70;4.10;;;17.40;99.90;;;18.42;68.64;100875.31;4988210;28;20683;-71
2022/09/01 02:59:27;;;;;;;4.60;4.10;;;17.40;99.90;;;18.29;69.12;100876.72;4988621;28;20745;-71
2022/09/01 03:01:56;;;;;;;5.93;4.80;;;17.40;99.90;;;18.38;69.26;100866.03;5004688;28;20651;-71
2022/09/01 03:04:23;;;;;;;5.80;4.13;;;17.40;99.90;;;18.33;69.15;100872.78;4988951;28;20644;-71
2022/09/01 03:06:53;;;;;;;4.60;4.20;;;17.30;99.90;;;18.25;69.60;100870.09;4988982;28;20631;-71
2022/09/01 03:09:23;;;;;;;5.37;4.87;;;17.20;99.90;;;18.16;69.86;100869.19;4980864;28;20659;-71
2022/09/01 03:11:53;;;;;;;5.20;4.70;;;17.20;99.90;;;18.28;69.38;100872.41;4975624;28;20709;-71
2022/09/01 03:14:21;;;;;;;4.83;4.43;;;17.20;99.90;;;18.26;69.34;100869.91;4988725;28;20610;-70
2022/09/01 03:16:48;;;;;;;4.50;4.10;;;17.30;99.90;;;18.26;69.30;100863.81;4992531;28;21200;-71
2022/09/01 03:19:17;;;;;;;4.93;4.53;;;17.30;99.90;;;18.28;69.10;100864.47;4992339;28;20658;-71
2022/09/01 03:21:48;;;;;;;4.10;3.80;;;17.20;99.90;;;18.31;69.16;100864.19;4991251;28;20705;-71
2022/09/01 03:24:17;;;;;;;5.20;4.70;;;17.30;99.90;;;18.43;68.52;100863.78;4993106;28;20634;-71
2022/09/01 03:26:47;;;;;;;4.57;4.17;;;17.40;99.90;;;18.50;68.30;100862.22;4992871;28;21246;-71
2022/09/01 03:29:17;;;;;;;4.73;4.33;;;17.40;99.90;;;18.53;68.07;100867.16;4993523;28;20761;-70
2022/09/01 03:31:45;;;;;;;4.83;4.43;;;17.50;99.90;;;18.54;67.89;100871.47;4994427;28;20654;-71
2022/09/01 03:34:12;;;;;;;6.00;4.80;;;17.50;99.90;;;18.44;68.29;100870.72;5008490;28;20618;-71
2022/09/01 03:36:48;;;;;;;4.77;4.33;;;17.50;99.90;;;18.56;68.02;100880.09;4991681;28;20627;-67
2022/09/01 03:39:18;;;;;;;3.90;3.70;;;17.50;99.90;;;18.59;67.83;100873.66;4992020;28;20642;-68
2022/09/01 03:41:45;;;;;;;4.50;4.10;;;17.50;99.90;;;18.61;67.50;100876.13;4991777;28;21036;-71
2022/09/01 03:44:15;;;;;;;4.97;3.73;;;17.60;99.90;;;18.57;67.69;100875.59;4993024;28;20617;-71
2022/09/01 03:46:43;;;;;;;4.30;4.00;;;17.50;99.90;;;18.53;67.93;100875.09;4988383;28;20746;-71
2022/09/01 03:49:14;;;;;;;4.50;4.10;;;17.50;99.90;;;18.56;67.92;100872.16;4957237;28;20647;-71
2022/09/01 03:51:43;;;;;;;4.83;4.33;;;17.50;99.90;;;18.59;67.69;100877.09;4973626;28;20764;-70
2022/09/01 03:54:11;;;;;;;5.40;4.87;;;17.60;99.90;;;18.64;67.26;100870.53;4992778;28;20614;-71
2022/09/01 03:56:40;;;;;;;5.13;4.07;;;17.60;99.90;;;18.76;66.74;100871.94;4992065;28;20607;-71
2022/09/01 03:59:07;;;;;;;3.67;3.40;;;17.70;99.90;;;18.78;66.55;100877.88;4977013;28;20638;-70
2022/09/01 04:01:36;;;;;;;4.17;3.77;;;17.70;99.90;;;18.66;66.72;100876.47;4988851;28;21248;-71
2022/09/01 04:04:03;;;;;;;4.03;3.70;;;17.70;99.90;;;18.46;67.48;100874.03;4972755;28;20688;-70
2022/09/01 04:06:31;;;;;;;4.03;3.73;;;17.60;99.90;;;18.44;67.94;100876.00;4985062;28;20638;-69
2022/09/01 04:09:01;;;;;;;4.27;3.87;;;17.40;99.90;;;18.42;67.83;100869.22;4985768;28;20673;-71
2022/09/01 04:11:30;;;;;;;4.13;3.50;;;17.40;99.90;;;18.18;68.82;100882.22;4991723;28;20655;-71
2022/09/01 04:14:01;;;;;;;4.63;3.80;;;17.20;99.90;;;18.00;69.49;100876.13;4992678;28;20615;-72
2022/09/01 04:19:25;;;;;;;4.00;3.20;;;17.10;99.90;;;18.04;69.53;100875.66;4989643;28;21091;-69
2022/09/01 04:21:59;;;;;;;4.73;3.67;;;17.10;99.90;;;18.09;69.47;100881.34;4990853;28;20999;-71
2022/09/01 04:24:29;;;;;;;4.20;3.90;;;17.10;99.90;;;18.13;69.24;100874.75;4974030;28;20647;-71
2022/09/01 04:27:00;;;;;;;4.50;4.10;;;17.00;99.90;;;18.09;69.38;100881.34;4990504;28;20740;-70
2022/09/01 04:29:30;;;;;;;4.00;3.70;;;17.00;99.90;;;18.03;69.23;100881.13;5000565;28;20655;-71
2022/09/01 04:32:06;;;;;;;3.60;3.30;;;17.00;99.90;;;18.03;69.59;100878.47;4984494;28;21276;-70
2022/09/01 04:34:36;;;;;;;4.10;3.80;;;17.00;99.90;;;18.03;69.63;100881.13;4989761;28;20618;-70
2022/09/01 04:37:13;;;;;;;4.10;3.80;;;17.00;99.90;;;18.01;69.67;100876.00;4992645;28;20611;-71
2022/09/01 04:39:47;;;;;;;3.77;3.47;;;17.00;99.90;;;18.08;69.77;100878.84;4990470;28;20639;-71
2022/09/01 04:42:22;;;;;;;3.20;3.00;;;17.00;99.90;;;18.01;69.66;100883.91;4990787;28;21010;-71
2022/09/01 04:44:52;;;;;;;4.07;3.70;;;17.00;99.90;;;17.96;70.22;100880.06;4990821;28;20630;-70
2022/09/01 04:47:28;;;;;;;4.10;3.70;;;16.90;99.90;;;18.03;69.84;100892.50;4991173;28;20626;-70
2022/09/01 04:50:12;;;;;;;3.90;3.60;;;16.90;99.90;;;18.14;69.47;100887.00;5031767;23;20721;-68
2022/09/01 04:52:41;;;;;;;4.00;3.60;;;17.00;99.90;;;18.08;69.82;100887.59;5003946;28;20669;-69
2022/09/01 04:55:16;;;;;;;4.33;3.93;;;17.00;99.90;;;18.04;69.69;100885.44;5010710;28;20996;-70
2022/09/01 04:57:48;;;;;;;4.53;4.10;;;17.00;99.90;;;18.06;69.42;100888.75;5010891;28;21271;-68
2022/09/01 05:00:21;;;;;;;4.20;3.90;;;17.00;99.90;;;18.21;69.29;100889.84;5029108;28;20683;-68
2022/09/01 05:03:01;;;;;;;4.43;4.03;;;17.00;99.90;;;18.16;69.44;100890.31;5030966;28;20627;-66
2022/09/01 05:05:41;;;;;;;4.00;3.70;;;17.10;99.90;;;18.07;69.15;100891.22;5030954;28;20597;-69
2022/09/01 05:08:16;;;;;;;4.37;3.97;;;17.10;99.90;;;18.30;68.41;100888.91;5026771;28;20663;-69
2022/09/01 05:10:54;;;;;;;4.10;3.77;;;17.20;99.90;;;18.19;68.17;100879.44;5029262;28;20762;-68
2022/09/01 05:13:22;;;;;;;3.83;3.53;;;17.20;99.90;;;18.30;67.89;100881.84;5021864;28;20622;-68
2022/09/01 05:16:05;;;;;;;6.37;3.53;;;17.30;99.90;;;18.23;68.20;100883.41;5010928;28;20717;-68
2022/09/01 05:18:32;;;;;;;6.10;3.50;;;17.30;99.90;;;18.44;67.62;100880.50;5010916;28;21046;-67
2022/09/01 05:21:09;;;;;;;4.17;3.83;;;17.40;99.90;;;18.58;67.17;100888.69;5012261;28;20980;-68
2022/09/01 05:23:39;;;;;;;4.37;3.97;;;17.50;99.90;;;18.86;66.15;100877.94;5026175;28;21017;-67
2022/09/01 05:26:15;;;;;;;4.47;4.07;;;17.70;99.90;;;19.06;65.55;100880.16;5016083;28;20748;-68
2022/09/01 05:28:49;;;;;;;4.47;4.07;;;17.90;99.90;;;19.27;64.43;100888.50;5023546;28;20661;-67
2022/09/01 05:31:18;;;;;;;4.33;4.03;;;18.10;99.90;;;19.40;63.90;100890.75;5011232;28;20668;-68
2022/09/01 05:33:49;;;;;;;4.07;3.87;;;18.30;99.90;;;19.71;62.77;100891.00;5011006;28;20621;-68
2022/09/01 05:36:21;;;;;;;4.10;3.70;;;18.50;99.90;;;20.04;61.83;100895.31;5009682;28;20728;-68
2022/09/01 05:38:51;;;;;;;4.10;3.70;;;18.80;99.90;;;20.24;60.95;100894.06;5009795;28;21252;-67
2022/09/01 05:41:19;;;;;;;3.80;3.57;;;19.00;99.90;;;20.40;60.19;100890.56;5011228;28;20632;-69
2022/09/01 05:43:50;;;;;;;3.80;3.50;;;19.10;99.90;;;20.77;59.06;100899.63;5009834;28;20744;-68
2022/09/01 05:46:26;;;;;;;3.03;2.83;;;19.40;99.90;;;20.98;58.06;100890.25;5009929;28;20695;-67
2022/09/01 05:48:55;;;;;;;3.43;3.23;;;19.60;99.90;;;21.22;57.74;100891.03;5010030;28;20654;-68
2022/09/01 05:51:26;;;;;;;3.70;3.40;;;19.80;99.90;;;21.52;56.53;100895.53;5014656;28;20660;-68
2022/09/01 05:54:10;;;;;;;3.77;3.57;;;20.00;99.90;;;21.83;55.36;100895.53;5030923;28;20679;-67
2022/09/01 05:56:39;;;;;;;3.87;3.60;;;20.30;99.90;;;21.79;55.24;100896.88;5023177;28;20630;-68
2022/09/01 05:59:12;;;;;;;9.53;4.03;;;20.40;99.90;;;21.71;56.07;100898.75;5026643;28;20641;-68
2022/09/01 06:01:55;;;;;;;3.90;3.50;;;20.30;99.90;;;22.09;55.56;100908.47;5029402;28;20659;-67
2022/09/01 06:04:24;;;;;;;3.83;3.40;;;20.50;99.90;;;22.35;54.01;100904.44;5031634;28;20687;-68
2022/09/01 06:06:54;;;;;;;4.20;3.90;;;20.70;99.90;;;21.91;54.97;100899.97;5029081;28;20982;-67
2022/09/01 06:09:38;;;;;;;4.73;4.23;;;20.70;99.90;;;21.63;56.47;100900.47;5029778;28;20698;-69
2022/09/01 06:12:06;;;;;;;4.33;3.97;;;20.40;99.90;;;21.32;56.98;100904.94;5011768;28;20661;-68
2022/09/01 06:14:33;;;;;;;3.87;3.67;;;20.20;99.90;;;21.06;58.10;100898.25;5010236;28;20606;-69
2022/09/01 06:17:01;;;;;;;6.93;3.70;;;20.00;99.90;;;20.86;59.27;100903.06;5010420;28;20613;-68
2022/09/01 06:19:29;;;;;;;5.43;4.30;;;19.80;99.90;;;20.63;60.08;100894.19;5011865;28;20658;-68
2022/09/01 06:22:03;;;;;;;4.50;4.10;;;19.60;99.90;;;20.48;60.74;100903.81;5029832;28;20679;-69
2022/09/01 06:24:31;;;;;;;6.40;4.67;;;19.30;99.90;;;20.48;61.15;100909.94;5028434;28;20629;-68
2022/09/01 06:26:58;;;;;;;18.07;4.70;;;19.30;99.90;;;20.41;60.91;100902.81;5029105;28;20612;-69
2022/09/01 06:29:25;;;;;;;6.73;4.40;;;19.30;99.90;;;20.33;61.20;100910.78;5029067;28;21247;-67
2022/09/01 06:31:52;;;;;;;8.83;4.43;;;19.20;99.90;;;20.35;61.38;100906.13;5029957;28;20766;-67
2022/09/01 06:34:19;;;;;;;4.63;4.17;;;19.10;99.90;;;20.35;61.44;100903.50;5022627;28;20637;-66
2022/09/01 06:36:50;;;;;;;5.57;4.67;;;19.20;99.90;;;20.90;60.28;100899.09;5017420;28;20712;-66
2022/09/01 06:39:20;;;;;;;7.80;4.57;;;19.40;99.90;;;21.93;56.66;100903.28;5008101;28;20689;-66
2022/09/01 06:41:51;;;;;;;8.00;4.67;;;20.00;99.90;;;22.44;55.33;100902.53;5009274;28;20979;-68
2022/09/01 06:44:23;;;;;;;5.23;4.70;;;20.40;99.90;;;23.25;52.70;100899.03;5009277;28;20737;-68
2022/09/01 06:46:51;;;;;;;4.70;4.33;;;21.10;99.90;;;23.05;53.51;100902.25;5009666;28;20621;-66
2022/09/01 06:49:31;;;;;;;4.33;4.03;;;21.20;99.90;;;22.68;54.28;100904.97;5009030;28;20723;-69
2022/09/01 06:52:00;;;;;;;5.13;4.63;;;21.20;99.90;;;22.45;55.47;100917.47;5027214;28;20656;-66
2022/09/01 06:54:28;;;;;;;4.80;4.30;;;21.00;99.90;;;22.06;56.48;100914.16;5029559;28;20644;-69
2022/09/01 06:56:57;;;;;;;6.60;4.23;;;20.80;99.90;;;22.21;56.61;100912.38;5021042;28;20631;-66
2022/09/01 06:59:30;;;;;;;4.13;3.80;;;20.80;99.90;;;22.28;56.44;100914.13;5023866;28;20663;-69
2022/09/01 07:02:02;;;;;;;4.70;4.00;;;20.80;99.90;;;22.72;55.13;100911.56;5033782;28;20648;-66
2022/09/01 07:04:31;;;;;;;4.70;4.30;;;21.00;99.90;;;22.96;54.59;100918.47;5024098;28;20644;-66
2022/09/01 07:07:03;;;;;;;4.40;4.10;;;21.30;99.90;;;23.40;53.32;100923.81;5031592;28;20709;-68
2022/09/01 07:09:50;;;;;;;4.67;4.27;;;21.60;99.90;;;23.79;52.99;100938.41;5034019;28;20628;-66
2022/09/01 07:12:37;;;;;;;3.60;3.40;;;21.90;99.90;;;24.10;51.94;100929.34;5033576;28;21274;-65
2022/09/01 07:15:05;;;;;;;4.93;4.53;;;22.10;99.90;;;24.19;51.22;100931.66;5021071;28;21006;-68
2022/09/01 07:17:55;;;;;;;5.27;4.10;;;22.30;99.90;;;23.83;52.17;100934.34;5012810;28;20610;-67
2022/09/01 07:20:26;;;;;;;4.00;3.70;;;22.20;99.90;;;23.58;52.88;100937.53;5007135;28;20648;-66
2022/09/01 07:22:56;;;;;;;4.30;4.00;;;22.10;99.90;;;23.46;53.18;100933.72;5032068;28;20617;-69
2022/09/01 07:25:36;;;;;;;3.87;3.67;;;22.00;99.90;;;23.38;53.65;100936.50;5023292;28;20628;-66
2022/09/01 07:28:23;;;;;;;4.80;4.37;;;21.90;99.90;;;23.17;54.15;100939.06;5029198;28;20730;-66
2022/09/01 07:30:55;;;;;;;4.83;4.43;;;21.80;99.90;;;23.24;54.34;100927.47;5023058;28;20671;-66
2022/09/01 07:33:26;;;;;;;4.90;4.60;;;21.80;99.90;;;23.17;54.31;100931.06;5024322;28;20662;-66
2022/09/01 07:36:10;;;;;;;4.93;4.53;;;21.80;99.90;;;23.41;53.82;100933.44;5020942;28;20688;-67
2022/09/01 07:38:54;;;;;;;4.63;4.23;;;21.90;99.90;;;24.42;51.03;100942.16;5024657;28;20726;-66
2022/09/01 07:41:41;;;;;;;5.40;4.10;;;22.50;99.90;;;25.04;49.75;100935.03;5027774;28;20628;-66
2022/09/01 07:44:28;;;;;;;4.53;4.13;;;23.10;99.10;;;25.38;49.25;100943.00;5011549;28;20633;-67
2022/09/01 07:46:55;;;;;;;3.93;3.43;;;23.50;98.70;;;26.84;46.37;100946.63;5022341;28;21009;-67
2022/09/01 07:49:42;;;;;;;6.47;4.40;;;24.30;97.90;;;27.46;44.60;100948.75;5027551;28;20648;-68
2022/09/01 07:52:30;;;;;;;4.07;3.77;;;25.00;96.50;;;27.03;45.26;100950.28;5026511;28;20656;-67
2022/09/01 07:54:57;;;;;;;5.50;4.60;;;25.00;96.10;;;26.97;46.00;100950.28;5011738;28;20649;-66
2022/09/01 07:57:24;;;;;;;4.30;3.80;;;25.00;96.10;;;26.84;46.12;100946.63;5012585;28;20628;-67
2022/09/01 07:59:54;;;;;;;6.90;4.30;;;24.90;96.10;;;28.13;43.88;100948.19;5013793;28;20642;-67
2022/09/01 08:02:21;;;;;;;4.50;4.10;;;25.60;95.90;;;29.20;41.17;100947.09;5024624;28;21062;-67
2022/09/01 08:04:48;;;;;;;4.50;4.20;;;26.20;94.80;;;29.65;39.56;100942.97;5026692;28;21201;-68
2022/09/01 08:07:15;;;;;;;4.80;4.33;;;26.60;93.60;;;30.09;38.94;100947.16;5012000;28;20732;-67
2022/09/01 08:09:42;;;;;;;4.20;3.90;;;27.00;92.90;;;30.32;38.82;100948.06;5028754;28;21258;-67
2022/09/01 08:12:11;;;;;;;4.60;4.20;;;27.40;92.10;;;30.73;37.86;100946.34;5030816;28;20730;-70
2022/09/01 08:14:38;;;;;;;4.57;4.07;;;27.70;91.40;;;30.91;37.42;100955.13;5027723;28;20641;-67
2022/09/01 08:17:06;;;;;;;4.27;3.90;;;28.00;90.40;;;30.15;38.37;100960.53;5026942;28;21332;-67
2022/09/01 08:19:53;;;;;;;4.80;4.00;;;27.70;90.30;;;29.95;38.56;100953.78;5012051;28;20646;-69
2022/09/01 08:22:22;;;;;;;4.90;3.93;;;27.60;89.70;;;31.60;36.11;100954.22;5027633;28;20658;-67
2022/09/01 08:24:51;;;;;;;4.40;4.10;;;28.30;87.90;;;33.63;33.36;100960.69;5031903;28;20621;-68
2022/09/01 08:27:19;;;;;;;4.00;3.80;;;29.20;86.00;;;34.30;31.92;100955.72;5031423;28;20700;-71
2022/09/01 08:29:46;;;;;;;3.73;3.53;;;30.00;82.50;;;33.94;32.14;100955.63;5013251;28;20657;-67
2022/09/01 08:32:13;;;;;;;4.03;3.73;;;30.00;80.80;;;33.98;32.46;100954.84;5027474;28;21035;-71
2022/09/01 08:34:42;;;;;;;3.40;3.20;;;30.10;80.10;;;35.18;30.79;100962.31;5032764;28;20617;-68
2022/09/01 08:37:09;;;;;;;3.63;3.43;;;30.80;78.60;;;35.19;29.81;100950.38;5019966;28;20634;-70
2022/09/01 08:39:36;;;;;;;3.70;3.40;;;31.00;75.80;;;37.57;27.12;100974.59;5017146;28;20660;-68
2022/09/01 08:42:17;;;;;;;4.57;4.07;;;32.00;74.50;;;37.98;26.60;100958.84;5031614;28;20609;-67
2022/09/01 08:45:32;;;;;;;4.03;3.70;;;32.50;71.10;;;39.09;25.38;100963.28;5016945;28;20626;-67
2022/09/01 08:48:18;;;;;;;7.80;4.27;;;33.00;69.70;;;40.00;23.82;100960.19;5016496;28;20983;-68
2022/09/01 08:51:30;;;;;;;4.10;3.90;;;33.90;66.50;;;40.00;24.08;100960.19;5010776;28;20634;-67
2022/09/01 08:54:23;;;;;;;4.47;4.17;;;34.30;64.30;;;40.10;23.43;100957.31;5009515;28;21273;-68
2022/09/01 08:57:04;;;;;;;4.50;4.10;;;34.60;62.30;;;41.48;22.22;100945.13;5010775;28;20638;-70
2022/09/01 08:59:31;;;;;;;3.90;3.70;;;35.20;60.60;;;42.87;20.82;100948.56;5011775;28;20853;-70
2022/09/01 09:02:23;;;;;;;4.13;3.93;;;36.20;58.90;;;43.36;20.46;100945.47;5017944;28;20624;-69
2022/09/01 09:05:28;;;;;;;5.03;3.90;;;36.90;57.30;;;42.09;21.60;100939.06;5031972;28;20625;-67
2022/09/01 09:08:13;;;;;;;4.20;4.00;;;36.60;56.10;;;44.08;19.63;100950.38;5015102;28;20760;-69
2022/09/01 09:11:33;;;;;;;3.40;3.20;;;37.40;55.30;;;47.17;16.87;100944.13;5012214;28;20639;-67
2022/09/01 09:14:43;;;;;;;3.27;3.17;;;39.00;53.50;;;48.52;16.27;100947.63;5023100;28;21113;-70
2022/09/01 09:17:13;;;;;;;6.23;4.13;;;40.20;51.20;;;48.94;15.47;100954.22;5024729;28;20643;-67
2022/09/01 09:19:42;;;;;;;4.60;4.00;;;40.80;49.40;;;44.33;19.00;100947.56;5024917;28;20999;-70
2022/09/01 09:22:14;;;;;;;3.83;3.63;;;39.00;49.30;;;41.79;21.85;100934.28;5026540;28;20628;-68
2022/09/01 09:24:54;;;;;;;3.90;3.70;;;37.30;51.40;;;40.84;22.77;100937.97;5030613;28;20995;-68
2022/09/01 09:27:32;;;;;;;5.80;4.53;;;36.30;52.50;;;41.92;21.12;100932.59;5020807;28;20634;-71
2022/09/01 09:30:05;;;;;;;4.20;3.90;;;36.30;52.90;;;43.04;20.49;100935.66;5010481;28;20647;-68
2022/09/01 09:33:03;;;;;;;4.53;4.23;;;36.70;52.80;;;44.29;19.44;100934.78;5019422;28;20640;-68
2022/09/01 09:35:50;;;;;;;4.60;4.20;;;37.50;51.70;;;45.38;18.56;100933.84;5030183;28;21188;-70
2022/09/01 09:38:30;;;;;;;3.93;3.70;;;38.40;50.70;;;46.24;18.02;100931.13;5011909;28;20641;-70
2022/09/01 09:41:05;;;;;;;6.93;4.60;;;39.20;50.00;;;44.13;19.35;100930.97;5011328;28;20620;-69
2022/09/01 09:43:48;;;;;;;5.03;4.63;;;38.70;49.20;;;42.00;21.18;100918.97;5021424;28;20636;-68
2022/09/01 09:46:30;;;;;;;4.30;4.00;;;37.30;50.60;;;40.87;22.34;100912.72;5028964;28;20618;-68
2022/09/01 09:49:29;;;;;;;4.20;3.90;;;36.60;50.90;;;36.49;27.62;100908.28;5017856;28;20664;-68
2022/09/01 09:52:08;;;;;;;4.50;4.17;;;33.70;54.20;;;37.06;26.69;100913.28;5030170;28;20747;-67
2022/09/01 09:55:02;;;;;;;4.70;4.40;;;32.90;56.20;;;40.28;23.02;100909.97;5029941;28;20617;-69
2022/09/01 09:57:31;;;;;;;5.40;4.90;;;34.50;54.50;;;38.55;24.83;100903.56;5020595;28;21227;-68
2022/09/01 10:00:07;;;;;;;4.57;4.27;;;34.50;54.10;;;38.29;25.27;100900.31;5031050;28;20640;-68
2022/09/01 10:02:41;;;;;;;6.73;4.50;;;34.20;54.20;;;37.62;25.90;100892.91;5030385;28;20624;-66
2022/09/01 10:05:35;;;;;;;5.67;5.23;;;34.00;54.60;;;35.17;28.90;100887.44;5031535;28;20644;-67
2022/09/01 10:08:09;;;;;;;6.83;5.63;;;32.80;55.90;;;33.81;30.97;100883.75;5011844;28;20597;-66
2022/09/01 10:10:44;;;;;;;4.40;4.10;;;31.70;57.80;;;32.89;33.01;100882.94;5009778;28;20616;-67
2022/09/01 10:13:28;;;;;;;4.90;4.50;;;30.60;59.60;;;31.87;34.40;100879.72;5012067;28;20670;-66
2022/09/01 10:16:04;;;;;;;6.07;5.47;;;29.90;61.20;;;31.17;35.92;100876.47;5012498;28;21189;-67
2022/09/01 10:18:43;;;;;;;5.27;4.93;;;29.10;63.00;;;31.38;35.61;100869.59;5028513;28;20640;-66
2022/09/01 10:21:33;;;;;;;4.60;4.20;;;28.90;63.50;;;30.82;36.33;100872.16;5023640;28;20629;-66
2022/09/01 10:24:29;;;;;;;4.77;4.37;;;28.70;64.30;;;31.00;36.34;100875.59;5028345;28;21057;-68
2022/09/01 10:27:02;;;;;;;6.13;4.10;;;28.70;64.60;;;30.66;36.95;100865.66;5032830;28;20690;-67
2022/09/01 10:30:07;;;;;;;6.27;5.63;;;28.60;65.20;;;31.05;36.52;100869.47;5032060;28;20667;-66
2022/09/01 10:32:43;;;;;;;5.27;4.77;;;28.60;66.00;;;30.66;37.28;100865.66;5033108;28;20656;-66
2022/09/01 10:35:24;;;;;;;4.33;4.03;;;28.40;66.00;;;29.71;38.60;100858.69;5032390;28;20989;-66
2022/09/01 10:37:53;;;;;;;4.50;4.10;;;27.90;67.10;;;29.03;40.30;100864.34;5026313;28;20638;-70
2022/09/01 10:40:27;;;;;;;4.93;3.90;;;27.40;68.80;;;28.13;42.07;100866.91;5023291;28;20980;-68
2022/09/01 10:43:34;;;;;;;7.80;4.60;;;26.70;69.60;;;26.92;44.04;100863.38;5030348;28;20640;-68
2022/09/01 10:46:27;;;;;;;5.07;4.67;;;25.70;71.80;;;26.78;44.85;100866.31;5012743;28;20613;-68